• Join FlightAware (Why Join?)
  • Login
  • US Flag 
10:01PM EDT


 

Airport Tracker/Info


-or-


 

Live Flight TrackerFlight Track Log ✈ SKW7366 ✈ 16-Jul-2013 ✈ KAPN - KDTW

Flight Track Log - Related Links

Times and Time Zones

All times are in EDT time to prevent confusion due to time zone crossing. See the SKW7366 flight status page for this flight to view local times or setup timezone preferences in your user account.

Time Position Orientation Groundspeed Altitude Reporting Facility
EDT Latitude Longitude Course Direction KTS MPH feet Rate Location/Type
01:35PM 45.0581 -83.5606 196° South 208 239 1,200  Level Minneapolis Center
01:37PM 44.9883 -83.5897 196° South 216 249 4,000 1,500 Climbing Minneapolis Center
01:38PM 44.9231 -83.6114 193° South 225 259 5,000 420 Climbing Minneapolis Center
01:39PM 44.8489 -83.6369 194° South 250 288 5,000  Level Minneapolis Center
01:40PM 44.7803 -83.6603 194° South 255 293 5,000  Level Minneapolis Center
01:41PM 44.7036 -83.6864 194° South 263 303 5,000  Level Minneapolis Center
01:42PM 44.6139 -83.7161 193° South 269 310 5,000  Level Minneapolis Center
01:43PM 44.5433 -83.7403 194° South 266 306 5,000  Level Minneapolis Center
01:44PM 44.4656 -83.7667 194° South 267 307 5,000  Level Minneapolis Center
01:45PM 44.3933 -83.7919 194° South 270 311 5,000  Level Minneapolis Center
01:46PM 44.3167 -83.8172 193° South 266 306 5,000 240 Level Minneapolis Center
01:47PM 44.2392 -83.8422 193° South 267 307 5,500 1,680 Climbing Minneapolis Center
01:48PM 44.1664 -83.8667 194° South 272 313 8,500 2,760 Climbing Minneapolis Center
01:49PM 44.0875 -83.8919 193° South 272 313 11,300 2,280 Climbing Minneapolis Center
01:50PM 44.0108 -83.9169 193° South 285 328 13,300 1,620 Climbing Minneapolis Center
01:51PM 43.9267 -83.9467 194° South 309 356 14,700 720 Climbing Minneapolis Center
01:52PM 43.8350 -83.9789 194° South 323 372 14,900 60 Climbing Minneapolis Center
01:53PM 43.7544 -84.0089 195° South 347 399 14,900  Level Minneapolis Center
01:54PM 43.6297 -84.0531 194° South 368 423 14,900 -300 Level Minneapolis Center
01:55PM 43.5089 -84.0431 177° South 390 449 14,300 -840 Descending Minneapolis Center
01:57PM 43.4114 -83.9978 161° South 377 434 13,200 -1,020 Descending Minneapolis Center
01:58PM 43.3147 -83.9531 161° South 373 429 12,200 -660 Descending Minneapolis Center
01:59PM 43.2194 -83.9092 161° South 368 423 11,900 -180 Descending Minneapolis Center
02:00PM 43.1256 -83.8664 162° South 364 419 11,900  Level Minneapolis Center
02:01PM 43.0344 -83.8247 162° South 358 412 11,900  Level Minneapolis Center
02:01PM 42.9614 -83.7947 163° South 321 369 12,000 60 Climbing Cleveland Center
02:02PM 42.9142 -83.7725 161° South 337 388 12,000 60 Level Cleveland Center
02:02PM 42.8711 -83.7506 160° South 303 349 12,100 -120 Climbing Cleveland Center
02:03PM 42.7889 -83.7094 160° South 309 356 11,900 -240 Descending Cleveland Center